createdAt,value
2019-04-20T00:00:04.948Z,0.00
2019-04-20T00:01:03.015Z,0.00
2019-04-20T00:02:09.037Z,0.00
2019-04-20T00:03:01.548Z,0.00
2019-04-20T00:04:01.460Z,0.00
2019-04-20T00:05:01.393Z,0.00
2019-04-20T00:06:01.462Z,0.00
2019-04-20T00:07:01.908Z,0.00
2019-04-20T00:08:07.753Z,0.00
2019-04-20T00:09:09.705Z,0.00
2019-04-20T00:10:08.519Z,0.00
2019-04-20T00:11:08.066Z,0.00
2019-04-20T00:12:08.673Z,0.00
2019-04-20T00:13:13.683Z,0.00
2019-04-20T00:14:07.110Z,0.00
2019-04-20T00:15:00.660Z,0.00
2019-04-20T00:16:00.474Z,0.00
2019-04-20T00:17:01.001Z,0.00
2019-04-20T00:18:03.098Z,0.00
2019-04-20T00:19:02.326Z,0.00
2019-04-20T00:20:05.826Z,0.00
2019-04-20T00:21:05.626Z,0.00
2019-04-20T00:22:04.589Z,0.00
2019-04-20T00:22:59.901Z,0.00
2019-04-20T00:24:01.034Z,0.00
2019-04-20T00:25:04.190Z,0.00
2019-04-20T00:26:10.253Z,0.00
2019-04-20T00:27:25.732Z,0.00
2019-04-20T00:28:16.105Z,0.00
2019-04-20T00:29:17.635Z,0.00
2019-04-20T00:30:25.091Z,0.00
2019-04-20T00:32:09.589Z,0.00
2019-04-20T00:33:09.373Z,0.00
2019-04-20T00:34:07.884Z,0.00
2019-04-20T00:34:59.876Z,0.00
2019-04-20T00:35:58.969Z,0.00
2019-04-20T00:37:00.155Z,0.00
2019-04-20T00:37:59.150Z,0.00
2019-04-20T00:39:01.705Z,0.00
2019-04-20T00:39:59.498Z,0.00
2019-04-20T00:41:02.769Z,0.00
2019-04-20T00:42:03.555Z,0.00
2019-04-20T00:42:59.805Z,0.00
2019-04-20T00:44:04.617Z,0.00
2019-04-20T00:45:05.645Z,0.00
2019-04-20T00:46:06.022Z,0.00
2019-04-20T00:47:08.645Z,0.00
2019-04-20T00:48:04.413Z,0.00
2019-04-20T00:49:06.970Z,0.00
2019-04-20T00:50:13.698Z,0.00
2019-04-20T00:51:18.805Z,0.00
2019-04-20T00:52:23.936Z,0.00
2019-04-20T00:53:06.724Z,0.00
2019-04-20T00:53:58.936Z,0.00
2019-04-20T00:54:58.088Z,0.00
2019-04-20T00:55:57.202Z,0.00
2019-04-20T00:57:11.501Z,0.00
2019-04-20T00:58:08.851Z,0.00
2019-04-20T00:59:09.172Z,0.00
2019-04-20T01:00:17.682Z,0.00
2019-04-20T01:01:13.050Z,0.00
2019-04-20T01:02:12.660Z,0.00
2019-04-20T01:03:14.393Z,0.00
2019-04-20T01:04:15.354Z,0.00
2019-04-20T01:05:15.490Z,0.00
2019-04-20T01:06:19.305Z,0.00
2019-04-20T01:07:11.280Z,0.00
2019-04-20T01:07:59.997Z,0.00
2019-04-20T01:08:57.034Z,0.00
2019-04-20T01:09:56.249Z,0.00
2019-04-20T01:10:57.697Z,0.00
2019-04-20T01:11:56.609Z,0.00
2019-04-20T01:13:01.188Z,0.00
2019-04-20T01:14:02.177Z,0.00
2019-04-20T01:15:01.069Z,0.00
2019-04-20T01:16:03.281Z,0.00
2019-04-20T01:17:00.473Z,0.00
2019-04-20T01:17:55.367Z,0.00
2019-04-20T01:18:55.289Z,0.00
2019-04-20T01:19:55.194Z,0.00
2019-04-20T01:21:00.311Z,0.00
2019-04-20T01:22:01.080Z,0.00
2019-04-20T01:23:01.997Z,0.00
2019-04-20T01:23:59.531Z,0.00
2019-04-20T01:24:55.015Z,0.00
2019-04-20T01:26:01.455Z,0.00
2019-04-20T01:26:58.051Z,0.00
2019-04-20T01:28:12.643Z,0.00
2019-04-20T01:29:06.694Z,0.00
2019-04-20T01:30:07.450Z,0.00
2019-04-20T01:31:06.465Z,0.00
2019-04-20T01:32:07.994Z,0.00
2019-04-20T01:33:08.848Z,0.00
2019-04-20T01:34:03.159Z,0.00
2019-04-20T01:35:05.745Z,0.00
2019-04-20T01:36:16.530Z,0.00
2019-04-20T01:37:12.040Z,0.00
2019-04-20T01:38:14.748Z,0.00
2019-04-20T01:39:02.773Z,0.00
2019-04-20T01:39:55.874Z,0.00
2019-04-20T01:40:53.469Z,0.00
2019-04-20T01:41:54.039Z,0.00
2019-04-20T01:42:53.320Z,0.00
2019-04-20T01:43:54.359Z,0.00
2019-04-20T01:44:55.337Z,0.00
2019-04-20T01:46:03.293Z,0.00
2019-04-20T01:46:56.872Z,0.00
2019-04-20T01:47:55.014Z,0.00
2019-04-20T01:48:52.808Z,0.00
2019-04-20T01:49:57.518Z,0.00
2019-04-20T01:51:02.150Z,0.00
2019-04-20T01:52:06.208Z,0.00
2019-04-20T01:53:01.533Z,0.00
2019-04-20T01:54:06.949Z,0.00
2019-04-20T01:55:12.462Z,0.00
2019-04-20T01:56:07.199Z,0.00
2019-04-20T01:57:01.659Z,0.00
2019-04-20T01:58:12.406Z,0.00
2019-04-20T01:59:10.622Z,0.00
2019-04-20T02:00:03.147Z,0.00
2019-04-20T02:00:54.778Z,0.00
2019-04-20T02:01:57.628Z,0.00
2019-04-20T02:02:57.227Z,0.00
2019-04-20T02:03:54.107Z,0.00
2019-04-20T02:04:52.558Z,0.00
2019-04-20T02:05:56.491Z,0.00
2019-04-20T02:06:55.270Z,0.00
2019-04-20T02:07:53.883Z,0.00
2019-04-20T02:08:58.335Z,0.00
2019-04-20T02:09:56.782Z,0.00
2019-04-20T02:10:57.053Z,0.00
2019-04-20T02:11:52.467Z,0.00
2019-04-20T02:12:57.589Z,0.00
2019-04-20T02:13:56.657Z,0.00
2019-04-20T02:14:55.642Z,0.00
2019-04-20T02:15:55.630Z,0.00
2019-04-20T02:16:58.427Z,0.00
2019-04-20T02:18:03.167Z,0.00
2019-04-20T02:19:08.234Z,0.00
2019-04-20T02:20:14.413Z,0.00
2019-04-20T02:21:09.677Z,0.00
2019-04-20T02:22:03.938Z,0.00
2019-04-20T02:23:04.108Z,0.00
2019-04-20T02:23:55.566Z,0.00
2019-04-20T02:24:50.938Z,0.00
2019-04-20T02:25:50.148Z,0.00
2019-04-20T02:26:51.545Z,0.00
2019-04-20T02:27:55.045Z,0.00
2019-04-20T02:29:12.199Z,0.00
2019-04-20T02:30:13.517Z,0.00
2019-04-20T02:31:24.806Z,0.00
2019-04-20T02:32:22.816Z,0.00
2019-04-20T02:33:39.926Z,0.00
2019-04-20T02:34:24.040Z,0.00
2019-04-20T02:35:16.773Z,0.00
2019-04-20T02:37:28.336Z,0.00
2019-04-20T02:38:28.346Z,0.00
2019-04-20T02:39:33.001Z,0.00
2019-04-20T02:40:28.765Z,0.00
2019-04-20T02:41:19.847Z,0.00
2019-04-20T02:42:24.663Z,0.00
2019-04-20T02:43:35.660Z,0.00
2019-04-20T02:44:25.622Z,0.00
2019-04-20T02:45:28.913Z,0.00
2019-04-20T02:46:22.552Z,0.00
2019-04-20T02:47:21.197Z,0.00
2019-04-20T02:48:13.919Z,0.00
2019-04-20T02:49:33.118Z,0.00
2019-04-20T02:51:23.318Z,0.00
2019-04-20T02:52:21.057Z,0.00
2019-04-20T02:55:26.702Z,0.00
2019-04-20T02:56:26.486Z,0.00
2019-04-20T02:57:18.085Z,0.00
2019-04-20T02:58:15.192Z,0.00
2019-04-20T03:00:12.654Z,0.00
2019-04-20T03:01:09.714Z,0.00
2019-04-20T03:02:06.268Z,0.00
2019-04-20T03:03:02.592Z,0.00
2019-04-20T03:03:51.008Z,0.00
2019-04-20T03:04:57.112Z,0.00
2019-04-20T03:06:06.389Z,0.00
2019-04-20T03:07:05.238Z,0.00
2019-04-20T03:08:04.331Z,0.00
2019-04-20T03:09:09.068Z,0.00
2019-04-20T03:10:03.932Z,0.00
2019-04-20T03:11:09.327Z,0.00
2019-04-20T03:12:08.162Z,0.00
2019-04-20T03:13:08.829Z,0.00
2019-04-20T03:14:02.475Z,0.00
2019-04-20T03:14:58.407Z,0.00
2019-04-20T03:16:08.793Z,0.00
2019-04-20T03:17:12.736Z,0.00
2019-04-20T03:18:12.294Z,0.00
2019-04-20T03:19:03.199Z,0.00
2019-04-20T03:20:00.674Z,0.00
2019-04-20T03:21:08.016Z,0.00
2019-04-20T03:22:08.909Z,0.00
2019-04-20T03:23:26.430Z,0.00
2019-04-20T03:24:17.391Z,0.00
2019-04-20T03:25:09.354Z,0.00
2019-04-20T03:26:05.514Z,0.00
2019-04-20T03:26:59.765Z,0.00
2019-04-20T03:28:05.195Z,0.00
2019-04-20T03:29:03.522Z,4.00
2019-04-20T03:30:03.822Z,4.00
2019-04-20T03:33:24.632Z,4.00
2019-04-20T03:34:41.761Z,4.00
2019-04-20T03:36:12.477Z,4.00
2019-04-20T03:37:06.875Z,8.00
2019-04-20T03:38:04.655Z,8.00
2019-04-20T03:39:01.278Z,8.00
2019-04-20T03:39:56.775Z,12.00
2019-04-20T03:40:56.485Z,12.00
2019-04-20T03:41:47.327Z,12.00
2019-04-20T03:42:44.676Z,16.00
2019-04-20T03:43:43.562Z,20.00
2019-04-20T03:44:50.474Z,24.00
2019-04-20T03:45:52.695Z,24.00
2019-04-20T03:46:51.344Z,32.00
2019-04-20T03:47:57.068Z,32.00
2019-04-20T03:49:01.103Z,36.00
2019-04-20T03:50:07.326Z,40.00
2019-04-20T03:51:02.280Z,48.00
2019-04-20T03:52:02.764Z,56.00
2019-04-20T03:53:04.416Z,60.00
2019-04-20T03:53:58.862Z,68.00
2019-04-20T03:54:52.062Z,72.00
2019-04-20T03:55:53.064Z,84.00
2019-04-20T03:57:01.683Z,96.00
2019-04-20T03:58:05.790Z,104.00
2019-04-20T03:58:55.505Z,116.00
2019-04-20T04:00:04.621Z,128.00
2019-04-20T04:00:59.791Z,140.00
2019-04-20T04:02:28.557Z,152.00
2019-04-20T04:03:12.662Z,164.00
2019-04-20T04:04:05.166Z,180.00
2019-04-20T04:04:59.334Z,196.00
2019-04-20T04:05:55.907Z,212.00
2019-04-20T04:06:46.904Z,224.00
2019-04-20T04:07:47.106Z,244.00
2019-04-20T04:08:55.943Z,260.00
2019-04-20T04:10:00.825Z,280.00
2019-04-20T04:11:02.804Z,300.00
2019-04-20T04:11:56.041Z,320.00
2019-04-20T04:12:44.803Z,340.00
2019-04-20T04:13:41.882Z,360.00
2019-04-20T04:14:40.924Z,384.00
2019-04-20T04:15:45.103Z,404.00
2019-04-20T04:16:46.977Z,424.00
2019-04-20T04:17:44.705Z,452.00
2019-04-20T04:18:44.728Z,480.00
2019-04-20T04:19:50.601Z,504.00
2019-04-20T04:20:46.740Z,536.00
2019-04-20T04:21:52.444Z,568.00
2019-04-20T04:22:57.636Z,596.00
2019-04-20T04:23:54.472Z,624.00
2019-04-20T04:24:57.030Z,648.00
2019-04-20T04:25:57.486Z,672.00
2019-04-20T04:26:55.992Z,696.00
2019-04-20T04:27:59.405Z,720.00
2019-04-20T04:28:53.226Z,744.00
2019-04-20T04:29:58.274Z,772.00
2019-04-20T04:30:59.422Z,796.00
2019-04-20T04:32:05.502Z,832.00
2019-04-20T04:33:27.511Z,864.00
2019-04-20T04:34:02.350Z,896.00
2019-04-20T04:34:52.969Z,924.00
2019-04-20T04:35:55.291Z,952.00
2019-04-20T04:36:59.366Z,980.00
2019-04-20T04:37:57.307Z,1008.00
2019-04-20T04:39:00.558Z,1044.00
2019-04-20T04:40:10.743Z,1092.00
2019-04-20T04:41:09.684Z,1152.00
2019-04-20T04:42:07.040Z,1216.00
2019-04-20T04:43:01.675Z,1280.00
2019-04-20T04:43:53.764Z,1332.00
2019-04-20T04:44:48.529Z,1368.00
2019-04-20T04:45:38.601Z,1400.00
2019-04-20T04:46:42.594Z,1424.00
2019-04-20T04:47:38.718Z,1432.00
2019-04-20T04:48:42.763Z,1440.00
2019-04-20T04:49:41.352Z,1436.00
2019-04-20T04:50:49.625Z,1432.00
2019-04-20T04:51:46.822Z,1432.00
2019-04-20T04:52:45.410Z,1448.00
2019-04-20T04:53:47.894Z,1468.00
2019-04-20T04:54:46.210Z,1512.00
2019-04-20T04:55:45.685Z,1576.00
2019-04-20T04:56:37.647Z,1620.00
2019-04-20T04:57:37.054Z,1672.00
2019-04-20T04:58:38.367Z,1724.00
2019-04-20T04:59:38.360Z,1768.00
2019-04-20T05:00:38.019Z,1812.00
2019-04-20T05:01:37.789Z,1852.00
2019-04-20T05:02:43.289Z,1900.00
2019-04-20T05:03:59.857Z,1944.00
2019-04-20T05:04:57.921Z,1988.00
2019-04-20T05:05:57.211Z,2032.00
2019-04-20T05:06:54.791Z,2116.00
2019-04-20T05:07:49.642Z,2172.00
2019-04-20T05:08:42.045Z,2224.00
2019-04-20T05:09:36.055Z,2220.00
2019-04-20T05:10:36.919Z,2240.00
2019-04-20T05:11:36.707Z,2288.00
2019-04-20T05:12:37.140Z,2296.00
2019-04-20T05:13:42.885Z,2300.00
2019-04-20T05:14:46.029Z,2304.00
2019-04-20T05:15:49.867Z,2408.00
2019-04-20T05:16:51.300Z,2556.00
2019-04-20T05:17:57.320Z,2568.00
2019-04-20T05:18:57.937Z,2652.00
2019-04-20T05:19:54.101Z,2824.00
2019-04-20T05:20:58.891Z,2740.00
2019-04-20T05:22:00.866Z,2644.00
2019-04-20T05:22:51.071Z,2600.00
2019-04-20T05:23:44.616Z,2600.00
2019-04-20T05:24:56.919Z,2636.00
2019-04-20T05:25:57.022Z,2776.00
2019-04-20T05:26:58.293Z,2900.00
2019-04-20T05:27:54.735Z,2992.00
2019-04-20T05:28:47.244Z,3008.00
2019-04-20T05:29:36.567Z,3188.00
2019-04-20T05:30:45.139Z,3236.00
2019-04-20T05:31:41.427Z,3256.00
2019-04-20T05:32:44.904Z,3280.00
2019-04-20T05:33:57.032Z,3104.00
2019-04-20T05:35:02.515Z,2920.00
2019-04-20T05:35:55.650Z,2864.00
2019-04-20T05:36:49.303Z,2736.00
2019-04-20T05:38:03.969Z,2732.00
2019-04-20T05:39:00.257Z,2956.00
2019-04-20T05:39:59.403Z,3380.00
2019-04-20T05:40:54.152Z,3532.00
2019-04-20T05:41:54.184Z,3196.00
2019-04-20T05:42:52.363Z,2840.00
2019-04-20T05:43:49.653Z,2764.00
2019-04-20T05:44:55.726Z,2772.00
2019-04-20T05:45:45.086Z,2820.00
2019-04-20T05:46:56.592Z,2860.00
2019-04-20T05:47:48.441Z,2876.00
2019-04-20T05:49:00.546Z,2860.00
2019-04-20T05:49:50.163Z,2852.00
2019-04-20T05:50:54.829Z,2876.00
2019-04-20T05:52:15.329Z,2892.00
2019-04-20T05:52:59.790Z,2900.00
2019-04-20T05:53:50.415Z,2908.00
2019-04-20T05:54:50.922Z,2908.00
2019-04-20T05:55:49.256Z,2908.00
2019-04-20T05:56:50.074Z,2912.00
2019-04-20T05:57:56.972Z,2916.00
2019-04-20T05:58:50.818Z,2920.00
2019-04-20T05:59:55.987Z,2928.00
2019-04-20T06:00:57.113Z,2940.00
2019-04-20T06:01:58.859Z,2952.00
2019-04-20T06:02:52.479Z,2964.00
2019-04-20T06:03:49.023Z,2976.00
2019-04-20T06:05:10.175Z,2984.00
2019-04-20T06:05:58.300Z,3008.00
2019-04-20T06:06:55.377Z,3008.00
2019-04-20T06:07:48.704Z,3004.00
2019-04-20T06:08:59.312Z,3016.00
2019-04-20T06:09:54.421Z,3032.00
2019-04-20T06:10:50.553Z,3036.00
2019-04-20T06:12:04.332Z,3052.00
2019-04-20T06:12:52.933Z,2972.00
2019-04-20T06:13:44.419Z,3044.00
2019-04-20T06:14:48.319Z,3108.00
2019-04-20T06:15:46.707Z,3256.00
2019-04-20T06:16:56.911Z,3372.00
2019-04-20T06:17:49.416Z,3252.00
2019-04-20T06:18:44.485Z,3284.00
2019-04-20T06:19:53.174Z,3292.00
2019-04-20T06:21:08.388Z,3384.00
2019-04-20T06:22:02.121Z,3812.00
2019-04-20T06:22:51.072Z,4060.00
2019-04-20T06:24:01.972Z,3792.00
2019-04-20T06:24:56.591Z,3828.00
2019-04-20T06:26:11.227Z,3980.00
2019-04-20T06:26:53.551Z,3768.00
2019-04-20T06:27:54.087Z,3524.00
2019-04-20T06:28:42.892Z,3612.00
2019-04-20T06:29:46.616Z,3680.00
2019-04-20T06:30:45.525Z,3580.00
2019-04-20T06:31:50.586Z,3584.00
2019-04-20T06:32:50.797Z,3624.00
2019-04-20T06:34:08.554Z,3660.00
2019-04-20T06:34:50.210Z,3720.00
2019-04-20T06:36:17.994Z,3776.00
2019-04-20T06:36:52.567Z,3860.00
2019-04-20T06:37:53.807Z,3944.00
2019-04-20T06:38:56.238Z,3920.00
2019-04-20T06:42:48.116Z,4216.00
2019-04-20T06:43:55.771Z,4080.00
2019-04-20T06:45:06.443Z,4072.00
2019-04-20T06:45:56.860Z,4136.00
2019-04-20T06:46:58.825Z,4180.00
2019-04-20T06:47:51.767Z,4312.00
2019-04-20T06:48:56.848Z,4408.00
2019-04-20T06:49:52.957Z,4632.00
2019-04-20T06:50:44.126Z,4828.00
2019-04-20T06:51:47.391Z,4808.00
2019-04-20T06:52:42.263Z,4696.00
2019-04-20T06:53:46.971Z,4552.00
2019-04-20T06:54:48.514Z,4872.00
2019-04-20T06:55:51.118Z,5316.00
2019-04-20T06:56:48.110Z,5612.00
2019-04-20T06:58:00.716Z,5896.00
2019-04-20T06:58:49.834Z,5464.00
2019-04-20T06:59:45.840Z,5076.00
2019-04-20T07:00:46.555Z,5172.00
2019-04-20T07:01:56.626Z,5332.00
2019-04-20T07:03:01.795Z,5356.00
2019-04-20T07:05:00.082Z,5056.00
2019-04-20T07:05:45.779Z,5176.00
2019-04-20T07:07:48.115Z,6088.00
2019-04-20T07:08:56.749Z,6104.00
2019-04-20T07:10:02.441Z,5828.00
2019-04-20T07:10:52.105Z,5888.00
2019-04-20T07:11:46.201Z,5768.00
2019-04-20T07:12:41.917Z,6160.00
2019-04-20T07:13:35.918Z,6612.00
2019-04-20T07:14:39.412Z,6928.00
2019-04-20T07:15:41.571Z,7164.00
2019-04-20T07:16:44.649Z,7544.00
2019-04-20T07:17:54.701Z,7164.00
2019-04-20T07:18:53.205Z,6776.00
2019-04-20T07:19:48.493Z,6456.00
2019-04-20T07:20:51.650Z,6628.00
2019-04-20T07:21:53.214Z,7144.00
2019-04-20T07:22:46.650Z,7312.00
2019-04-20T07:23:49.775Z,7728.00
2019-04-20T07:24:55.092Z,7656.00
2019-04-20T07:25:49.049Z,7684.00
2019-04-20T07:26:51.380Z,7756.00
2019-04-20T07:27:49.086Z,7776.00
2019-04-20T07:28:53.028Z,7756.00
2019-04-20T07:29:47.509Z,7772.00
2019-04-20T07:30:49.287Z,7752.00
2019-04-20T07:31:45.937Z,7664.00
2019-04-20T07:32:52.550Z,7684.00
2019-04-20T07:33:46.439Z,7704.00
2019-04-20T07:34:48.422Z,7752.00
2019-04-20T07:35:40.418Z,7640.00
2019-04-20T07:36:54.107Z,7504.00
2019-04-20T07:38:50.331Z,7268.00
2019-04-20T07:39:48.267Z,7304.00
2019-04-20T07:40:44.080Z,7384.00
2019-04-20T07:41:50.524Z,7404.00
2019-04-20T07:42:49.216Z,7176.00
2019-04-20T07:43:54.175Z,7204.00
2019-04-20T07:44:48.867Z,7248.00
2019-04-20T07:45:40.141Z,7216.00
2019-04-20T07:46:59.870Z,7220.00
2019-04-20T07:47:46.695Z,7368.00
2019-04-20T07:48:42.929Z,7376.00
2019-04-20T07:49:42.083Z,7288.00
2019-04-20T07:50:37.287Z,7272.00
2019-04-20T07:51:28.273Z,7236.00
2019-04-20T07:52:36.332Z,7376.00
2019-04-20T07:53:39.269Z,7384.00
2019-04-20T07:54:53.124Z,7412.00
2019-04-20T07:55:58.206Z,7436.00
2019-04-20T07:56:42.261Z,7572.00
2019-04-20T07:57:37.680Z,7692.00
2019-04-20T07:58:30.788Z,7588.00
2019-04-20T07:59:31.513Z,7596.00
2019-04-20T08:00:49.719Z,7672.00
2019-04-20T08:01:53.061Z,7760.00
2019-04-20T08:02:55.586Z,7864.00
2019-04-20T08:03:44.439Z,8016.00
2019-04-20T08:04:40.724Z,8152.00
2019-04-20T08:05:33.699Z,8336.00
2019-04-20T08:06:30.052Z,8480.00
2019-04-20T08:07:35.227Z,8740.00
2019-04-20T08:08:42.204Z,9988.00
2019-04-20T08:09:34.201Z,11424.00
2019-04-20T08:10:33.668Z,12548.00
2019-04-20T08:11:44.762Z,12928.00
2019-04-20T08:12:48.806Z,14040.00
2019-04-20T08:13:46.772Z,13704.00
2019-04-20T08:14:47.992Z,13868.00
2019-04-20T08:15:49.182Z,14276.00
2019-04-20T08:16:54.664Z,15020.00
2019-04-20T08:17:51.375Z,16280.00
2019-04-20T08:18:44.571Z,17760.00
2019-04-20T08:19:43.844Z,17696.00
2019-04-20T08:20:43.441Z,17664.00
2019-04-20T08:21:40.597Z,17504.00
2019-04-20T08:22:41.031Z,17920.00
2019-04-20T08:23:40.219Z,18368.00
2019-04-20T08:24:37.371Z,18752.00
2019-04-20T08:25:33.104Z,18016.00
2019-04-20T08:26:27.145Z,18240.00
2019-04-20T08:27:21.255Z,18784.00
2019-04-20T08:28:31.440Z,18496.00
2019-04-20T08:29:33.833Z,18592.00
2019-04-20T08:30:34.195Z,18880.00
2019-04-20T08:31:33.573Z,18656.00
2019-04-20T08:32:38.962Z,17568.00
2019-04-20T08:33:45.191Z,16248.00
2019-04-20T08:34:42.609Z,16168.00
2019-04-20T08:35:42.007Z,16208.00
2019-04-20T08:36:39.211Z,15688.00
2019-04-20T08:37:40.383Z,15880.00
2019-04-20T08:39:05.807Z,14448.00
2019-04-20T08:40:41.829Z,12784.00
2019-04-20T08:41:37.352Z,12240.00
2019-04-20T08:42:51.120Z,12668.00
2019-04-20T08:43:47.408Z,12556.00
2019-04-20T08:44:59.091Z,12132.00
2019-04-20T08:45:43.111Z,11592.00
2019-04-20T08:46:44.582Z,11796.00
2019-04-20T08:47:44.723Z,11768.00
2019-04-20T08:48:42.449Z,12264.00
2019-04-20T08:49:41.092Z,11744.00
2019-04-20T08:50:34.060Z,9888.00
2019-04-20T08:51:47.314Z,9436.00
2019-04-20T08:52:55.473Z,9336.00
2019-04-20T08:53:37.019Z,9328.00
2019-04-20T08:54:34.436Z,9300.00
2019-04-20T08:55:33.519Z,9064.00
2019-04-20T08:56:31.183Z,9116.00
2019-04-20T08:57:18.155Z,9268.00
2019-04-20T08:58:18.160Z,9228.00
2019-04-20T08:59:18.880Z,9136.00
2019-04-20T09:00:28.821Z,9288.00
2019-04-20T09:01:21.640Z,9420.00
2019-04-20T09:02:19.125Z,9668.00
2019-04-20T09:03:24.333Z,9848.00
2019-04-20T09:04:23.000Z,10048.00
2019-04-20T09:05:32.634Z,10128.00
2019-04-20T09:06:34.762Z,10052.00
2019-04-20T09:07:21.674Z,10220.00
2019-04-20T09:08:23.920Z,10088.00
2019-04-20T09:09:44.561Z,10232.00
2019-04-20T09:10:39.479Z,10056.00
2019-04-20T09:11:45.133Z,10044.00
2019-04-20T09:12:36.906Z,10188.00
2019-04-20T09:13:26.914Z,10388.00
2019-04-20T09:14:18.423Z,10596.00
2019-04-20T09:15:16.917Z,10612.00
2019-04-20T09:16:19.877Z,10652.00
2019-04-20T09:17:24.186Z,10960.00
2019-04-20T09:18:26.102Z,11036.00
2019-04-20T09:19:30.820Z,10836.00
2019-04-20T09:20:29.264Z,9512.00
2019-04-20T09:21:33.091Z,8508.00
2019-04-20T09:22:28.322Z,7372.00
2019-04-20T09:23:31.432Z,7328.00
2019-04-20T09:24:38.175Z,8672.00
2019-04-20T09:25:50.320Z,9636.00
2019-04-20T09:26:34.307Z,10796.00
2019-04-20T09:27:28.496Z,11096.00
2019-04-20T09:28:27.646Z,13000.00
2019-04-20T09:29:31.912Z,13600.00
2019-04-20T09:30:27.858Z,13872.00
2019-04-20T09:31:31.641Z,13456.00
2019-04-20T09:32:30.511Z,12080.00
2019-04-20T09:33:33.607Z,10564.00
2019-04-20T09:34:33.725Z,10232.00
2019-04-20T09:35:30.218Z,10632.00
2019-04-20T09:36:27.694Z,12180.00
2019-04-20T09:37:33.859Z,12904.00
2019-04-20T09:38:30.635Z,12200.00
2019-04-20T09:39:25.690Z,9792.00
2019-04-20T09:40:32.209Z,9420.00
2019-04-20T09:41:42.203Z,9176.00
2019-04-20T09:42:14.932Z,9232.00
2019-04-20T09:43:16.975Z,8736.00
2019-04-20T09:44:15.557Z,8540.00
2019-04-20T09:45:23.182Z,8420.00
2019-04-20T09:46:15.709Z,8312.00
2019-04-20T09:47:18.214Z,8248.00
2019-04-20T09:48:21.225Z,8140.00
2019-04-20T09:49:23.662Z,8056.00
2019-04-20T09:50:36.529Z,8012.00
2019-04-20T09:51:30.645Z,7964.00
2019-04-20T09:52:30.010Z,7544.00
2019-04-20T09:53:25.427Z,7348.00
2019-04-20T09:54:34.393Z,7188.00
2019-04-20T09:55:26.814Z,6868.00
2019-04-20T09:56:29.786Z,6740.00
2019-04-20T09:57:33.492Z,6620.00
2019-04-20T09:58:26.251Z,6484.00
2019-04-20T09:59:33.685Z,6408.00
2019-04-20T10:00:32.929Z,6472.00
2019-04-20T10:01:27.247Z,6564.00
2019-04-20T10:02:19.751Z,6676.00
2019-04-20T10:03:13.383Z,6708.00
2019-04-20T10:04:13.364Z,6712.00
2019-04-20T10:05:13.552Z,6748.00
2019-04-20T10:06:13.813Z,6828.00
2019-04-20T10:07:17.605Z,6904.00
2019-04-20T10:08:13.648Z,6924.00
2019-04-20T10:09:13.638Z,6964.00
2019-04-20T10:10:23.916Z,6968.00
2019-04-20T10:11:13.854Z,6916.00
2019-04-20T10:12:13.525Z,6964.00
2019-04-20T10:13:13.301Z,7032.00
2019-04-20T10:14:12.559Z,7068.00
2019-04-20T10:15:19.054Z,7108.00
2019-04-20T10:16:13.458Z,7172.00
2019-04-20T10:17:13.685Z,7256.00
2019-04-20T10:18:12.261Z,7732.00
2019-04-20T10:19:13.625Z,7804.00
2019-04-20T10:20:20.870Z,7588.00
2019-04-20T10:21:12.035Z,7532.00
2019-04-20T10:22:13.040Z,7388.00
2019-04-20T10:23:12.452Z,7296.00
2019-04-20T10:24:12.581Z,7240.00
2019-04-20T10:25:12.748Z,7308.00
2019-04-20T10:26:12.289Z,7316.00
2019-04-20T10:27:12.515Z,7324.00
2019-04-20T10:28:11.768Z,7252.00
2019-04-20T10:29:11.423Z,7232.00
2019-04-20T10:30:12.451Z,7240.00
2019-04-20T10:31:12.602Z,7312.00
2019-04-20T10:32:15.524Z,7820.00
2019-04-20T10:33:11.125Z,8584.00
2019-04-20T10:34:11.616Z,9164.00
2019-04-20T10:35:14.747Z,12636.00
2019-04-20T10:36:11.841Z,9720.00
2019-04-20T10:37:11.509Z,7720.00
2019-04-20T10:38:11.514Z,7580.00
2019-04-20T10:39:10.845Z,7708.00
2019-04-20T10:40:11.521Z,8308.00
2019-04-20T10:41:15.387Z,8620.00
2019-04-20T10:42:10.441Z,10324.00
2019-04-20T10:43:10.398Z,11532.00
2019-04-20T10:44:11.207Z,10856.00
2019-04-20T10:45:10.885Z,14204.00
2019-04-20T10:46:11.069Z,11152.00
2019-04-20T10:47:11.208Z,9484.00
2019-04-20T10:48:10.910Z,8796.00
2019-04-20T10:49:11.317Z,8760.00
2019-04-20T10:50:11.201Z,9508.00
2019-04-20T10:51:10.692Z,9544.00
2019-04-20T10:52:09.826Z,9808.00
2019-04-20T10:53:09.947Z,8400.00
2019-04-20T10:54:09.538Z,8316.00
2019-04-20T10:55:10.473Z,8368.00
2019-04-20T10:56:09.622Z,8504.00
2019-04-20T10:57:09.852Z,8632.00
2019-04-20T10:58:09.374Z,9604.00
2019-04-20T10:59:09.772Z,11660.00
2019-04-20T11:00:09.945Z,16524.00
2019-04-20T11:01:09.546Z,30400.00
2019-04-20T11:02:09.892Z,32192.00
2019-04-20T11:03:09.931Z,34592.00
2019-04-20T11:04:08.801Z,32704.00
2019-04-20T11:05:08.727Z,29440.00
2019-04-20T11:06:08.952Z,30080.00
2019-04-20T11:07:08.591Z,29728.00
2019-04-20T11:08:08.570Z,29760.00
2019-04-20T11:09:08.925Z,29632.00
2019-04-20T11:10:17.883Z,29632.00
2019-04-20T11:11:14.577Z,29920.00
2019-04-20T11:12:08.307Z,30688.00
2019-04-20T11:13:09.513Z,32448.00
2019-04-20T11:14:15.441Z,32320.00
2019-04-20T11:15:08.375Z,32096.00
2019-04-20T11:16:08.539Z,32320.00
2019-04-20T11:17:08.682Z,32096.00
2019-04-20T11:18:08.998Z,31616.00
2019-04-20T11:19:07.743Z,31424.00
2019-04-20T11:20:07.679Z,31040.00
2019-04-20T11:21:07.604Z,31008.00
2019-04-20T11:22:08.395Z,30880.00
2019-04-20T11:23:08.440Z,30080.00
2019-04-20T11:24:08.149Z,29856.00
2019-04-20T11:25:08.271Z,29120.00
2019-04-20T11:26:08.403Z,28992.00
2019-04-20T11:27:07.876Z,30336.00
2019-04-20T11:28:08.116Z,30208.00
2019-04-20T11:29:08.275Z,29824.00
2019-04-20T11:30:07.997Z,29568.00
2019-04-20T11:31:07.980Z,29344.00
2019-04-20T11:32:07.254Z,29536.00
2019-04-20T11:33:06.805Z,29824.00
2019-04-20T11:34:07.957Z,30368.00
2019-04-20T11:35:12.412Z,30048.00
2019-04-20T11:36:07.416Z,28512.00
2019-04-20T11:37:06.885Z,26976.00
2019-04-20T11:38:07.372Z,26592.00
2019-04-20T11:39:07.146Z,24032.00
2019-04-20T11:40:06.514Z,18368.00
2019-04-20T11:41:13.500Z,17088.00
2019-04-20T11:42:06.208Z,20992.00
2019-04-20T11:43:06.144Z,23360.00
2019-04-20T11:44:07.515Z,22720.00
2019-04-20T11:45:06.714Z,17280.00
2019-04-20T11:46:06.867Z,19136.00
2019-04-20T11:47:06.404Z,20288.00
2019-04-20T11:48:05.807Z,20192.00
2019-04-20T11:49:05.794Z,21120.00
2019-04-20T11:50:05.683Z,22624.00
2019-04-20T11:51:05.613Z,22880.00
2019-04-20T11:52:05.588Z,22496.00
2019-04-20T11:53:05.606Z,20704.00
2019-04-20T11:54:06.211Z,21088.00
2019-04-20T11:55:06.315Z,21184.00
2019-04-20T11:56:07.650Z,18816.00
2019-04-20T11:57:05.207Z,19520.00
2019-04-20T11:58:05.903Z,18336.00
2019-04-20T11:59:05.338Z,21504.00
2019-04-20T12:00:05.455Z,20928.00
2019-04-20T12:01:11.072Z,20256.00
2019-04-20T12:02:07.589Z,19968.00
2019-04-20T12:03:15.016Z,19872.00
2019-04-20T12:04:20.064Z,19808.00
2019-04-20T12:05:17.278Z,19616.00
2019-04-20T12:06:07.053Z,19552.00
2019-04-20T12:07:04.761Z,19328.00
2019-04-20T12:08:05.064Z,19584.00
2019-04-20T12:09:05.144Z,19520.00
2019-04-20T12:10:09.214Z,19488.00
2019-04-20T12:11:21.605Z,19232.00
2019-04-20T12:12:15.709Z,19136.00
2019-04-20T12:13:04.150Z,18976.00
2019-04-20T12:14:04.729Z,18880.00
2019-04-20T12:15:04.466Z,18880.00
2019-04-20T12:16:03.951Z,18240.00
2019-04-20T12:17:03.889Z,17696.00
2019-04-20T12:18:05.215Z,18400.00
2019-04-20T12:19:04.321Z,18688.00
2019-04-20T12:20:03.982Z,18720.00
2019-04-20T12:21:04.946Z,18688.00
2019-04-20T12:22:03.646Z,19232.00
2019-04-20T12:23:04.340Z,19424.00
2019-04-20T12:24:04.413Z,19328.00
2019-04-20T12:25:03.362Z,19296.00
2019-04-20T12:26:04.668Z,19424.00
2019-04-20T12:27:03.228Z,19424.00
2019-04-20T12:28:03.943Z,19328.00
2019-04-20T12:29:03.573Z,19520.00
2019-04-20T12:30:03.692Z,19520.00
2019-04-20T12:31:10.182Z,19488.00
2019-04-20T12:32:05.243Z,19456.00
2019-04-20T12:33:03.835Z,19456.00
2019-04-20T12:34:02.761Z,19232.00
2019-04-20T12:35:02.700Z,19392.00
2019-04-20T12:36:02.634Z,20000.00
2019-04-20T12:37:02.905Z,20640.00